createdAt,value
2019-04-11T17:54:31.032Z,74.1
2019-04-11T17:59:35.260Z,60.3
2019-04-11T18:04:36.490Z,56
2019-04-11T18:09:36.571Z,54.4
2019-04-11T18:14:37.135Z,53.4
2019-04-11T18:19:37.827Z,52.6
2019-04-11T18:24:38.528Z,52.1
2019-04-11T18:29:39.267Z,51.6
2019-04-11T18:34:39.832Z,51.3
2019-04-11T18:39:41.079Z,50.9
2019-04-11T19:41:16.921Z,53.8
2019-04-11T19:46:14.993Z,49.5
2019-04-11T19:51:14.264Z,52.6
2019-04-11T19:56:16.745Z,51.9
2019-04-11T20:01:14.869Z,49.5
2019-04-11T20:06:13.335Z,47.4
2019-04-11T20:11:11.099Z,45.7
2019-04-11T20:16:12.159Z,43.9
2019-04-11T20:21:07.492Z,42.6
2019-04-11T20:26:04.489Z,41.3
2019-04-11T20:31:01.767Z,40.5
2019-04-11T20:35:59.139Z,39.7
2019-04-11T20:40:55.869Z,38.9
2019-04-11T20:45:53.442Z,38.2
2019-04-11T20:50:50.154Z,37.6
2019-04-11T20:55:46.760Z,37.1
2019-04-11T21:00:49.923Z,36.6
2019-04-11T21:05:41.059Z,36.2
2019-04-11T21:10:37.915Z,35.8
2019-04-11T21:15:34.349Z,35.5
2019-04-11T21:20:31.323Z,35.1
2019-04-11T21:25:29.048Z,34.9
2019-04-11T21:30:25.092Z,34.7
2019-04-11T21:35:21.579Z,34.5
2019-04-11T21:40:17.868Z,34.4
2019-04-11T21:45:13.672Z,34.3
2019-04-11T21:50:10.352Z,34.2
2019-04-11T21:55:06.411Z,34.2
2019-04-11T22:00:01.758Z,34.2
2019-04-11T22:04:58.873Z,34.1
2019-04-11T22:09:51.935Z,34.1
2019-04-11T22:14:47.096Z,34.1
2019-04-11T22:19:45.083Z,34.2
2019-04-11T22:24:37.111Z,34.2
2019-04-11T22:29:32.165Z,34.4
2019-04-11T22:34:28.755Z,34.6
2019-04-11T22:39:22.580Z,34.8
2019-04-11T22:44:17.590Z,35.1
2019-04-11T22:49:12.589Z,35.5
2019-04-11T22:54:07.660Z,35.8
2019-04-11T22:59:02.418Z,36.1
2019-04-11T23:03:57.485Z,36.4
2019-04-11T23:08:52.535Z,36.7
2019-04-11T23:13:47.483Z,37.1
2019-04-11T23:18:44.130Z,37.3
2019-04-11T23:23:37.681Z,37.6
2019-04-11T23:28:31.903Z,37.9
2019-04-11T23:33:27.013Z,38.2
2019-04-11T23:38:23.850Z,38.5
2019-04-11T23:43:19.824Z,38.7
2019-04-11T23:48:12.309Z,39
2019-04-11T23:53:07.660Z,39.1
2019-04-11T23:58:02.722Z,39.3
